sensor_id;sensor_type;location;lat;lon;timestamp;P1;durP1;ratioP1;P2;durP2;ratioP2
21621;SDS011;10973;46.706;12.340;2023-04-15T00:01:39;1.60;;;1.50;;
21621;SDS011;10973;46.706;12.340;2023-04-15T00:04:07;1.70;;;1.60;;
21621;SDS011;10973;46.706;12.340;2023-04-15T00:06:35;1.73;;;1.63;;
21621;SDS011;10973;46.706;12.340;2023-04-15T00:09:03;1.63;;;1.57;;
21621;SDS011;10973;46.706;12.340;2023-04-15T00:11:30;1.67;;;1.57;;
21621;SDS011;10973;46.706;12.340;2023-04-15T00:13:57;1.30;;;1.20;;
21621;SDS011;10973;46.706;12.340;2023-04-15T00:16:25;1.40;;;1.40;;
21621;SDS011;10973;46.706;12.340;2023-04-15T00:18:52;1.23;;;1.23;;
21621;SDS011;10973;46.706;12.340;2023-04-15T00:21:20;1.00;;;1.00;;
21621;SDS011;10973;46.706;12.340;2023-04-15T00:23:47;1.50;;;1.40;;
21621;SDS011;10973;46.706;12.340;2023-04-15T00:26:14;1.20;;;1.20;;
21621;SDS011;10973;46.706;12.340;2023-04-15T00:28:41;1.40;;;1.40;;
21621;SDS011;10973;46.706;12.340;2023-04-15T00:31:09;1.27;;;1.20;;
21621;SDS011;10973;46.706;12.340;2023-04-15T00:33:36;1.20;;;1.20;;
21621;SDS011;10973;46.706;12.340;2023-04-15T00:36:05;1.10;;;1.10;;
21621;SDS011;10973;46.706;12.340;2023-04-15T00:38:33;1.17;;;1.17;;
21621;SDS011;10973;46.706;12.340;2023-04-15T00:41:00;1.23;;;1.23;;
21621;SDS011;10973;46.706;12.340;2023-04-15T00:43:29;1.30;;;1.30;;
21621;SDS011;10973;46.706;12.340;2023-04-15T00:45:56;1.20;;;1.20;;
21621;SDS011;10973;46.706;12.340;2023-04-15T00:48:27;1.50;;;1.40;;
21621;SDS011;10973;46.706;12.340;2023-04-15T00:50:54;1.57;;;1.47;;
21621;SDS011;10973;46.706;12.340;2023-04-15T00:53:21;1.13;;;1.10;;
21621;SDS011;10973;46.706;12.340;2023-04-15T00:55:49;1.20;;;1.20;;
21621;SDS011;10973;46.706;12.340;2023-04-15T00:58:16;1.13;;;1.13;;
21621;SDS011;10973;46.706;12.340;2023-04-15T01:00:44;1.30;;;1.27;;
21621;SDS011;10973;46.706;12.340;2023-04-15T01:03:12;2.53;;;2.33;;
21621;SDS011;10973;46.706;12.340;2023-04-15T01:05:39;4.50;;;2.67;;
21621;SDS011;10973;46.706;12.340;2023-04-15T01:08:07;3.03;;;2.70;;
21621;SDS011;10973;46.706;12.340;2023-04-15T01:10:34;2.20;;;2.10;;
21621;SDS011;10973;46.706;12.340;2023-04-15T01:13:02;2.30;;;1.90;;
21621;SDS011;10973;46.706;12.340;2023-04-15T01:15:29;1.60;;;1.50;;
21621;SDS011;10973;46.706;12.340;2023-04-15T01:17:57;2.20;;;2.10;;
21621;SDS011;10973;46.706;12.340;2023-04-15T01:20:25;2.00;;;1.90;;
21621;SDS011;10973;46.706;12.340;2023-04-15T01:22:54;1.70;;;1.60;;
21621;SDS011;10973;46.706;12.340;2023-04-15T01:25:31;2.60;;;2.37;;
21621;SDS011;10973;46.706;12.340;2023-04-15T01:27:59;2.17;;;2.07;;
21621;SDS011;10973;46.706;12.340;2023-04-15T01:30:27;2.30;;;2.20;;
21621;SDS011;10973;46.706;12.340;2023-04-15T01:32:54;2.77;;;2.57;;
21621;SDS011;10973;46.706;12.340;2023-04-15T01:35:22;4.43;;;2.90;;
21621;SDS011;10973;46.706;12.340;2023-04-15T01:37:49;2.90;;;2.70;;
21621;SDS011;10973;46.706;12.340;2023-04-15T01:40:17;3.00;;;2.20;;
21621;SDS011;10973;46.706;12.340;2023-04-15T01:42:44;3.30;;;3.00;;
21621;SDS011;10973;46.706;12.340;2023-04-15T01:45:12;2.90;;;2.60;;
21621;SDS011;10973;46.706;12.340;2023-04-15T01:47:39;3.83;;;3.50;;
21621;SDS011;10973;46.706;12.340;2023-04-15T01:50:07;2.10;;;2.00;;
21621;SDS011;10973;46.706;12.340;2023-04-15T01:52:34;1.93;;;1.83;;
21621;SDS011;10973;46.706;12.340;2023-04-15T01:55:02;1.90;;;1.80;;
21621;SDS011;10973;46.706;12.340;2023-04-15T01:57:29;1.93;;;1.83;;
21621;SDS011;10973;46.706;12.340;2023-04-15T01:59:57;1.47;;;1.43;;
21621;SDS011;10973;46.706;12.340;2023-04-15T02:02:24;1.93;;;1.70;;
21621;SDS011;10973;46.706;12.340;2023-04-15T02:04:51;1.60;;;1.50;;
21621;SDS011;10973;46.706;12.340;2023-04-15T02:07:18;1.77;;;1.67;;
21621;SDS011;10973;46.706;12.340;2023-04-15T02:09:45;1.70;;;1.60;;
21621;SDS011;10973;46.706;12.340;2023-04-15T02:12:13;1.43;;;1.33;;
21621;SDS011;10973;46.706;12.340;2023-04-15T02:14:40;1.67;;;1.57;;
21621;SDS011;10973;46.706;12.340;2023-04-15T02:17:07;1.47;;;1.40;;
21621;SDS011;10973;46.706;12.340;2023-04-15T02:19:34;1.40;;;1.40;;
21621;SDS011;10973;46.706;12.340;2023-04-15T02:22:02;2.57;;;1.43;;
21621;SDS011;10973;46.706;12.340;2023-04-15T02:24:30;1.60;;;1.50;;
21621;SDS011;10973;46.706;12.340;2023-04-15T02:26:57;1.40;;;1.30;;
21621;SDS011;10973;46.706;12.340;2023-04-15T02:29:24;1.40;;;1.30;;
21621;SDS011;10973;46.706;12.340;2023-04-15T02:31:52;1.37;;;1.30;;
21621;SDS011;10973;46.706;12.340;2023-04-15T02:34:19;1.40;;;1.40;;
21621;SDS011;10973;46.706;12.340;2023-04-15T02:36:46;1.40;;;1.30;;
21621;SDS011;10973;46.706;12.340;2023-04-15T02:39:14;1.30;;;1.30;;
21621;SDS011;10973;46.706;12.340;2023-04-15T02:41:41;1.63;;;1.30;;
21621;SDS011;10973;46.706;12.340;2023-04-15T02:44:08;1.43;;;1.30;;
21621;SDS011;10973;46.706;12.340;2023-04-15T02:46:36;2.93;;;2.70;;
21621;SDS011;10973;46.706;12.340;2023-04-15T02:49:04;1.70;;;1.60;;
21621;SDS011;10973;46.706;12.340;2023-04-15T02:51:31;1.43;;;1.43;;
21621;SDS011;10973;46.706;12.340;2023-04-15T02:53:58;1.63;;;1.63;;
21621;SDS011;10973;46.706;12.340;2023-04-15T02:56:25;2.07;;;1.70;;
21621;SDS011;10973;46.706;12.340;2023-04-15T02:58:53;1.70;;;1.60;;
21621;SDS011;10973;46.706;12.340;2023-04-15T03:01:20;2.63;;;1.67;;
21621;SDS011;10973;46.706;12.340;2023-04-15T03:03:47;1.60;;;1.50;;
21621;SDS011;10973;46.706;12.340;2023-04-15T03:06:15;1.43;;;1.43;;
21621;SDS011;10973;46.706;12.340;2023-04-15T03:08:42;1.60;;;1.50;;
21621;SDS011;10973;46.706;12.340;2023-04-15T03:11:09;1.67;;;1.57;;
21621;SDS011;10973;46.706;12.340;2023-04-15T03:13:37;1.40;;;1.37;;
21621;SDS011;10973;46.706;12.340;2023-04-15T03:16:04;1.50;;;1.50;;
21621;SDS011;10973;46.706;12.340;2023-04-15T03:18:32;1.73;;;1.60;;
21621;SDS011;10973;46.706;12.340;2023-04-15T03:20:59;1.70;;;1.60;;
21621;SDS011;10973;46.706;12.340;2023-04-15T03:23:27;2.20;;;1.40;;
21621;SDS011;10973;46.706;12.340;2023-04-15T03:25:54;1.57;;;1.50;;
21621;SDS011;10973;46.706;12.340;2023-04-15T03:28:21;1.40;;;1.30;;
21621;SDS011;10973;46.706;12.340;2023-04-15T03:30:49;1.60;;;1.50;;
21621;SDS011;10973;46.706;12.340;2023-04-15T03:33:16;1.40;;;1.40;;
21621;SDS011;10973;46.706;12.340;2023-04-15T03:35:44;1.67;;;1.57;;
21621;SDS011;10973;46.706;12.340;2023-04-15T03:38:11;1.50;;;1.40;;
21621;SDS011;10973;46.706;12.340;2023-04-15T03:40:41;1.70;;;1.60;;
21621;SDS011;10973;46.706;12.340;2023-04-15T03:43:09;1.60;;;1.50;;
21621;SDS011;10973;46.706;12.340;2023-04-15T03:45:37;1.30;;;1.30;;
21621;SDS011;10973;46.706;12.340;2023-04-15T03:48:04;1.43;;;1.40;;
21621;SDS011;10973;46.706;12.340;2023-04-15T03:50:42;1.67;;;1.57;;
21621;SDS011;10973;46.706;12.340;2023-04-15T03:53:10;1.20;;;1.20;;
21621;SDS011;10973;46.706;12.340;2023-04-15T03:55:37;2.50;;;1.20;;
21621;SDS011;10973;46.706;12.340;2023-04-15T03:58:04;1.53;;;1.53;;
21621;SDS011;10973;46.706;12.340;2023-04-15T04:00:32;1.60;;;1.60;;
21621;SDS011;10973;46.706;12.340;2023-04-15T04:02:59;2.90;;;1.70;;
21621;SDS011;10973;46.706;12.340;2023-04-15T04:05:27;2.10;;;2.00;;
21621;SDS011;10973;46.706;12.340;2023-04-15T04:07:54;2.30;;;2.10;;
21621;SDS011;10973;46.706;12.340;2023-04-15T04:10:21;2.37;;;2.17;;
21621;SDS011;10973;46.706;12.340;2023-04-15T04:12:49;2.30;;;2.03;;
21621;SDS011;10973;46.706;12.340;2023-04-15T04:15:16;3.10;;;2.03;;
21621;SDS011;10973;46.706;12.340;2023-04-15T04:17:43;2.80;;;2.50;;
21621;SDS011;10973;46.706;12.340;2023-04-15T04:20:11;3.53;;;2.97;;
21621;SDS011;10973;46.706;12.340;2023-04-15T04:22:39;3.90;;;2.57;;
21621;SDS011;10973;46.706;12.340;2023-04-15T04:25:07;2.73;;;2.27;;
21621;SDS011;10973;46.706;12.340;2023-04-15T04:27:35;3.00;;;2.40;;
21621;SDS011;10973;46.706;12.340;2023-04-15T04:30:03;4.40;;;3.97;;
21621;SDS011;10973;46.706;12.340;2023-04-15T04:32:31;6.10;;;5.50;;
21621;SDS011;10973;46.706;12.340;2023-04-15T04:34:59;6.90;;;4.67;;
21621;SDS011;10973;46.706;12.340;2023-04-15T04:37:26;5.43;;;4.47;;
21621;SDS011;10973;46.706;12.340;2023-04-15T04:39:53;20.57;;;18.67;;
21621;SDS011;10973;46.706;12.340;2023-04-15T04:42:20;3.27;;;3.03;;
21621;SDS011;10973;46.706;12.340;2023-04-15T04:44:48;5.23;;;4.70;;
21621;SDS011;10973;46.706;12.340;2023-04-15T04:47:15;3.10;;;2.90;;
21621;SDS011;10973;46.706;12.340;2023-04-15T04:49:43;7.93;;;7.03;;
21621;SDS011;10973;46.706;12.340;2023-04-15T04:52:10;6.97;;;5.80;;
21621;SDS011;10973;46.706;12.340;2023-04-15T04:54:37;7.13;;;5.60;;
21621;SDS011;10973;46.706;12.340;2023-04-15T04:57:05;20.80;;;14.77;;
21621;SDS011;10973;46.706;12.340;2023-04-15T04:59:32;24.53;;;16.03;;
21621;SDS011;10973;46.706;12.340;2023-04-15T05:01:59;7.00;;;6.30;;
21621;SDS011;10973;46.706;12.340;2023-04-15T05:04:27;15.40;;;9.50;;
21621;SDS011;10973;46.706;12.340;2023-04-15T05:06:54;5.60;;;5.10;;
21621;SDS011;10973;46.706;12.340;2023-04-15T05:09:21;2.90;;;2.70;;
21621;SDS011;10973;46.706;12.340;2023-04-15T05:11:49;2.63;;;2.27;;
21621;SDS011;10973;46.706;12.340;2023-04-15T05:14:16;3.03;;;2.83;;
21621;SDS011;10973;46.706;12.340;2023-04-15T05:16:43;4.10;;;3.03;;
21621;SDS011;10973;46.706;12.340;2023-04-15T05:19:10;4.23;;;3.47;;
21621;SDS011;10973;46.706;12.340;2023-04-15T05:21:38;3.83;;;3.40;;
21621;SDS011;10973;46.706;12.340;2023-04-15T05:24:05;4.80;;;2.87;;
21621;SDS011;10973;46.706;12.340;2023-04-15T05:26:32;2.30;;;2.20;;
21621;SDS011;10973;46.706;12.340;2023-04-15T05:28:59;9.17;;;2.90;;
21621;SDS011;10973;46.706;12.340;2023-04-15T05:31:27;4.57;;;3.70;;
21621;SDS011;10973;46.706;12.340;2023-04-15T05:33:55;5.57;;;3.67;;
21621;SDS011;10973;46.706;12.340;2023-04-15T05:36:22;3.07;;;2.70;;
21621;SDS011;10973;46.706;12.340;2023-04-15T05:38:52;3.23;;;3.03;;
21621;SDS011;10973;46.706;12.340;2023-04-15T05:41:19;3.47;;;3.20;;
21621;SDS011;10973;46.706;12.340;2023-04-15T05:43:47;3.83;;;3.43;;
21621;SDS011;10973;46.706;12.340;2023-04-15T05:46:14;4.30;;;3.90;;
21621;SDS011;10973;46.706;12.340;2023-04-15T05:48:41;6.50;;;5.33;;
21621;SDS011;10973;46.706;12.340;2023-04-15T05:51:09;5.17;;;4.67;;
21621;SDS011;10973;46.706;12.340;2023-04-15T05:53:36;5.43;;;4.20;;
21621;SDS011;10973;46.706;12.340;2023-04-15T05:56:03;5.50;;;5.00;;
21621;SDS011;10973;46.706;12.340;2023-04-15T05:58:31;5.40;;;4.10;;
21621;SDS011;10973;46.706;12.340;2023-04-15T06:00:58;4.93;;;4.43;;
21621;SDS011;10973;46.706;12.340;2023-04-15T06:03:25;4.17;;;3.87;;
21621;SDS011;10973;46.706;12.340;2023-04-15T06:05:53;4.57;;;3.60;;
21621;SDS011;10973;46.706;12.340;2023-04-15T06:08:20;3.73;;;3.43;;
21621;SDS011;10973;46.706;12.340;2023-04-15T06:10:47;3.47;;;2.80;;
21621;SDS011;10973;46.706;12.340;2023-04-15T06:13:15;4.27;;;2.93;;
21621;SDS011;10973;46.706;12.340;2023-04-15T06:15:42;3.00;;;2.80;;
21621;SDS011;10973;46.706;12.340;2023-04-15T06:18:10;4.63;;;3.60;;
21621;SDS011;10973;46.706;12.340;2023-04-15T06:20:37;3.60;;;3.30;;
21621;SDS011;10973;46.706;12.340;2023-04-15T06:23:07;4.13;;;3.80;;
21621;SDS011;10973;46.706;12.340;2023-04-15T06:25:34;3.90;;;3.17;;
21621;SDS011;10973;46.706;12.340;2023-04-15T06:28:02;3.67;;;3.03;;
21621;SDS011;10973;46.706;12.340;2023-04-15T06:30:29;3.67;;;2.67;;
21621;SDS011;10973;46.706;12.340;2023-04-15T06:32:57;5.67;;;4.20;;
21621;SDS011;10973;46.706;12.340;2023-04-15T06:35:25;11.97;;;5.53;;
21621;SDS011;10973;46.706;12.340;2023-04-15T06:37:53;6.00;;;4.57;;
21621;SDS011;10973;46.706;12.340;2023-04-15T06:40:20;5.80;;;3.40;;
21621;SDS011;10973;46.706;12.340;2023-04-15T06:42:48;2.50;;;2.40;;
21621;SDS011;10973;46.706;12.340;2023-04-15T06:45:15;3.63;;;2.67;;
21621;SDS011;10973;46.706;12.340;2023-04-15T06:47:43;4.80;;;3.27;;
21621;SDS011;10973;46.706;12.340;2023-04-15T06:50:11;3.63;;;3.13;;
21621;SDS011;10973;46.706;12.340;2023-04-15T06:52:38;2.87;;;2.47;;
21621;SDS011;10973;46.706;12.340;2023-04-15T06:55:05;2.17;;;2.00;;
21621;SDS011;10973;46.706;12.340;2023-04-15T06:57:33;2.20;;;2.10;;
21621;SDS011;10973;46.706;12.340;2023-04-15T07:00:01;3.60;;;2.30;;
21621;SDS011;10973;46.706;12.340;2023-04-15T07:02:29;2.97;;;2.23;;
21621;SDS011;10973;46.706;12.340;2023-04-15T07:05:00;2.33;;;2.13;;
21621;SDS011;10973;46.706;12.340;2023-04-15T07:07:28;2.50;;;2.30;;
21621;SDS011;10973;46.706;12.340;2023-04-15T07:09:56;2.37;;;2.17;;
21621;SDS011;10973;46.706;12.340;2023-04-15T07:12:25;2.80;;;2.57;;
21621;SDS011;10973;46.706;12.340;2023-04-15T07:14:52;2.50;;;2.30;;
21621;SDS011;10973;46.706;12.340;2023-04-15T07:17:20;2.23;;;2.00;;
21621;SDS011;10973;46.706;12.340;2023-04-15T07:19:47;2.60;;;2.40;;
21621;SDS011;10973;46.706;12.340;2023-04-15T07:22:15;2.40;;;2.20;;
21621;SDS011;10973;46.706;12.340;2023-04-15T07:24:42;3.30;;;2.60;;
21621;SDS011;10973;46.706;12.340;2023-04-15T07:27:10;2.63;;;2.40;;
21621;SDS011;10973;46.706;12.340;2023-04-15T07:29:37;2.17;;;1.93;;
21621;SDS011;10973;46.706;12.340;2023-04-15T07:32:04;1.93;;;1.80;;
21621;SDS011;10973;46.706;12.340;2023-04-15T07:34:32;4.43;;;2.00;;
21621;SDS011;10973;46.706;12.340;2023-04-15T07:36:59;2.60;;;1.87;;
21621;SDS011;10973;46.706;12.340;2023-04-15T07:39:26;9.97;;;2.50;;
21621;SDS011;10973;46.706;12.340;2023-04-15T07:41:53;3.03;;;1.87;;
21621;SDS011;10973;46.706;12.340;2023-04-15T07:44:21;2.87;;;2.00;;
21621;SDS011;10973;46.706;12.340;2023-04-15T07:46:48;2.50;;;2.30;;
21621;SDS011;10973;46.706;12.340;2023-04-15T07:49:15;2.40;;;2.20;;
21621;SDS011;10973;46.706;12.340;2023-04-15T07:51:42;2.17;;;1.93;;
21621;SDS011;10973;46.706;12.340;2023-04-15T07:54:10;2.23;;;2.07;;
21621;SDS011;10973;46.706;12.340;2023-04-15T07:56:37;2.10;;;2.00;;
21621;SDS011;10973;46.706;12.340;2023-04-15T07:59:04;2.20;;;2.10;;
21621;SDS011;10973;46.706;12.340;2023-04-15T08:01:31;2.20;;;1.97;;
21621;SDS011;10973;46.706;12.340;2023-04-15T08:03:59;2.47;;;1.77;;
21621;SDS011;10973;46.706;12.340;2023-04-15T08:06:26;2.87;;;2.10;;
21621;SDS011;10973;46.706;12.340;2023-04-15T08:08:53;6.73;;;2.10;;
21621;SDS011;10973;46.706;12.340;2023-04-15T08:11:21;1.97;;;1.87;;
21621;SDS011;10973;46.706;12.340;2023-04-15T08:13:48;4.50;;;2.10;;
21621;SDS011;10973;46.706;12.340;2023-04-15T08:16:19;3.63;;;1.93;;
21621;SDS011;10973;46.706;12.340;2023-04-15T08:18:50;2.50;;;2.30;;
21621;SDS011;10973;46.706;12.340;2023-04-15T08:21:19;2.27;;;2.07;;
21621;SDS011;10973;46.706;12.340;2023-04-15T08:23:47;1.90;;;1.80;;
21621;SDS011;10973;46.706;12.340;2023-04-15T08:26:17;2.60;;;2.13;;
21621;SDS011;10973;46.706;12.340;2023-04-15T08:28:46;5.47;;;2.13;;
21621;SDS011;10973;46.706;12.340;2023-04-15T08:31:15;3.77;;;2.43;;
21621;SDS011;10973;46.706;12.340;2023-04-15T08:33:43;6.30;;;3.37;;
21621;SDS011;10973;46.706;12.340;2023-04-15T08:36:12;2.10;;;1.90;;
21621;SDS011;10973;46.706;12.340;2023-04-15T08:38:39;2.30;;;2.03;;
21621;SDS011;10973;46.706;12.340;2023-04-15T08:41:08;2.97;;;1.83;;
21621;SDS011;10973;46.706;12.340;2023-04-15T08:43:57;3.77;;;1.73;;
21621;SDS011;10973;46.706;12.340;2023-04-15T08:46:32;2.00;;;1.90;;
21621;SDS011;10973;46.706;12.340;2023-04-15T08:49:00;1.77;;;1.67;;
21621;SDS011;10973;46.706;12.340;2023-04-15T08:51:30;2.27;;;1.90;;
21621;SDS011;10973;46.706;12.340;2023-04-15T08:53:58;1.90;;;1.50;;
21621;SDS011;10973;46.706;12.340;2023-04-15T08:56:27;3.83;;;1.57;;
21621;SDS011;10973;46.706;12.340;2023-04-15T08:58:58;2.87;;;1.97;;
21621;SDS011;10973;46.706;12.340;2023-04-15T09:01:27;16.50;;;3.50;;
21621;SDS011;10973;46.706;12.340;2023-04-15T09:03:55;49.67;;;7.27;;
21621;SDS011;10973;46.706;12.340;2023-04-15T09:06:24;2.90;;;1.77;;
21621;SDS011;10973;46.706;12.340;2023-04-15T09:08:52;3.43;;;1.97;;
21621;SDS011;10973;46.706;12.340;2023-04-15T09:11:20;6.03;;;2.90;;
21621;SDS011;10973;46.706;12.340;2023-04-15T09:13:48;3.20;;;1.77;;
21621;SDS011;10973;46.706;12.340;2023-04-15T09:16:16;3.97;;;2.20;;
21621;SDS011;10973;46.706;12.340;2023-04-15T09:18:43;5.00;;;2.13;;
21621;SDS011;10973;46.706;12.340;2023-04-15T09:21:12;4.57;;;2.10;;
21621;SDS011;10973;46.706;12.340;2023-04-15T09:23:58;6.93;;;2.10;;
21621;SDS011;10973;46.706;12.340;2023-04-15T09:26:34;4.00;;;1.93;;
21621;SDS011;10973;46.706;12.340;2023-04-15T09:29:10;4.30;;;1.83;;
21621;SDS011;10973;46.706;12.340;2023-04-15T09:31:38;2.27;;;1.80;;
21621;SDS011;10973;46.706;12.340;2023-04-15T09:34:06;6.07;;;4.10;;
21621;SDS011;10973;46.706;12.340;2023-04-15T09:36:50;4.10;;;3.30;;
21621;SDS011;10973;46.706;12.340;2023-04-15T09:39:20;3.93;;;2.40;;
21621;SDS011;10973;46.706;12.340;2023-04-15T09:42:06;2.77;;;2.13;;
21621;SDS011;10973;46.706;12.340;2023-04-15T09:44:34;4.83;;;2.80;;
21621;SDS011;10973;46.706;12.340;2023-04-15T09:47:01;1.60;;;1.50;;
21621;SDS011;10973;46.706;12.340;2023-04-15T09:49:28;3.50;;;2.53;;
21621;SDS011;10973;46.706;12.340;2023-04-15T09:51:59;2.43;;;1.90;;
21621;SDS011;10973;46.706;12.340;2023-04-15T09:54:35;16.07;;;3.77;;
21621;SDS011;10973;46.706;12.340;2023-04-15T09:57:04;1.90;;;1.77;;
21621;SDS011;10973;46.706;12.340;2023-04-15T09:59:34;2.40;;;2.20;;
21621;SDS011;10973;46.706;12.340;2023-04-15T10:02:05;5.27;;;2.23;;
21621;SDS011;10973;46.706;12.340;2023-04-15T10:04:34;2.93;;;2.00;;
21621;SDS011;10973;46.706;12.340;2023-04-15T10:07:06;1.70;;;1.60;;
21621;SDS011;10973;46.706;12.340;2023-04-15T10:09:35;4.20;;;1.87;;
21621;SDS011;10973;46.706;12.340;2023-04-15T10:12:04;1.90;;;1.80;;
21621;SDS011;10973;46.706;12.340;2023-04-15T10:14:33;9.17;;;3.43;;
21621;SDS011;10973;46.706;12.340;2023-04-15T10:17:04;1.97;;;1.73;;
21621;SDS011;10973;46.706;12.340;2023-04-15T10:19:35;2.10;;;1.90;;
21621;SDS011;10973;46.706;12.340;2023-04-15T10:22:03;2.00;;;1.90;;
21621;SDS011;10973;46.706;12.340;2023-04-15T10:24:32;2.30;;;2.10;;
21621;SDS011;10973;46.706;12.340;2023-04-15T10:27:00;2.37;;;2.10;;
21621;SDS011;10973;46.706;12.340;2023-04-15T10:29:30;2.47;;;1.90;;
21621;SDS011;10973;46.706;12.340;2023-04-15T10:31:58;2.23;;;1.60;;
21621;SDS011;10973;46.706;12.340;2023-04-15T10:34:27;1.80;;;1.70;;
21621;SDS011;10973;46.706;12.340;2023-04-15T10:36:59;2.80;;;1.90;;
21621;SDS011;10973;46.706;12.340;2023-04-15T10:42:07;1.77;;;1.67;;
21621;SDS011;10973;46.706;12.340;2023-04-15T10:44:41;1.60;;;1.60;;
21621;SDS011;10973;46.706;12.340;2023-04-15T10:47:17;11.67;;;2.43;;
21621;SDS011;10973;46.706;12.340;2023-04-15T10:49:50;6.87;;;1.93;;
21621;SDS011;10973;46.706;12.340;2023-04-15T10:52:24;3.13;;;1.70;;
21621;SDS011;10973;46.706;12.340;2023-04-15T10:57:39;1.87;;;1.70;;
21621;SDS011;10973;46.706;12.340;2023-04-15T11:00:14;1.70;;;1.60;;
21621;SDS011;10973;46.706;12.340;2023-04-15T11:06:10;2.50;;;1.70;;
21621;SDS011;10973;46.706;12.340;2023-04-15T11:08:18;1.87;;;1.60;;
21621;SDS011;10973;46.706;12.340;2023-04-15T11:11:06;1.90;;;1.80;;
21621;SDS011;10973;46.706;12.340;2023-04-15T11:13:33;2.23;;;1.80;;
21621;SDS011;10973;46.706;12.340;2023-04-15T11:16:01;1.70;;;1.60;;
21621;SDS011;10973;46.706;12.340;2023-04-15T11:18:29;2.90;;;2.00;;
21621;SDS011;10973;46.706;12.340;2023-04-15T11:21:00;1.50;;;1.37;;
21621;SDS011;10973;46.706;12.340;2023-04-15T11:23:39;1.93;;;1.60;;
21621;SDS011;10973;46.706;12.340;2023-04-15T11:26:09;1.57;;;1.50;;
21621;SDS011;10973;46.706;12.340;2023-04-15T11:28:37;2.57;;;2.10;;
21621;SDS011;10973;46.706;12.340;2023-04-15T11:31:12;2.37;;;2.27;;
21621;SDS011;10973;46.706;12.340;2023-04-15T11:33:46;3.43;;;2.30;;
21621;SDS011;10973;46.706;12.340;2023-04-15T11:36:25;1.30;;;1.30;;
21621;SDS011;10973;46.706;12.340;2023-04-15T11:38:56;1.50;;;1.40;;
21621;SDS011;10973;46.706;12.340;2023-04-15T11:41:24;1.83;;;1.50;;
21621;SDS011;10973;46.706;12.340;2023-04-15T11:43:52;3.67;;;1.40;;
21621;SDS011;10973;46.706;12.340;2023-04-15T11:46:19;1.30;;;1.20;;
21621;SDS011;10973;46.706;12.340;2023-04-15T11:48:54;7.67;;;1.60;;
21621;SDS011;10973;46.706;12.340;2023-04-15T11:51:21;3.33;;;1.47;;
21621;SDS011;10973;46.706;12.340;2023-04-15T11:53:49;1.77;;;1.30;;
21621;SDS011;10973;46.706;12.340;2023-04-15T11:56:17;1.40;;;1.30;;
21621;SDS011;10973;46.706;12.340;2023-04-15T11:58:47;2.40;;;1.23;;
21621;SDS011;10973;46.706;12.340;2023-04-15T12:01:29;1.27;;;1.23;;
21621;SDS011;10973;46.706;12.340;2023-04-15T12:04:13;1.70;;;1.30;;
21621;SDS011;10973;46.706;12.340;2023-04-15T12:06:45;1.27;;;1.17;;
21621;SDS011;10973;46.706;12.340;2023-04-15T12:09:13;1.40;;;1.20;;
21621;SDS011;10973;46.706;12.340;2023-04-15T12:11:50;1.50;;;1.40;;
21621;SDS011;10973;46.706;12.340;2023-04-15T12:14:23;1.33;;;1.33;;
21621;SDS011;10973;46.706;12.340;2023-04-15T12:19:30;2.00;;;1.90;;
21621;SDS011;10973;46.706;12.340;2023-04-15T12:22:08;1.73;;;1.63;;
21621;SDS011;10973;46.706;12.340;2023-04-15T12:24:37;3.20;;;2.53;;
21621;SDS011;10973;46.706;12.340;2023-04-15T12:27:06;1.87;;;1.60;;
21621;SDS011;10973;46.706;12.340;2023-04-15T12:29:37;1.67;;;1.27;;
21621;SDS011;10973;46.706;12.340;2023-04-15T12:34:37;1.40;;;1.30;;
21621;SDS011;10973;46.706;12.340;2023-04-15T12:37:10;1.30;;;1.30;;
21621;SDS011;10973;46.706;12.340;2023-04-15T12:39:39;1.40;;;1.30;;
21621;SDS011;10973;46.706;12.340;2023-04-15T12:42:08;2.00;;;1.50;;
21621;SDS011;10973;46.706;12.340;2023-04-15T12:44:37;1.23;;;1.23;;
21621;SDS011;10973;46.706;12.340;2023-04-15T12:47:06;3.77;;;1.43;;
21621;SDS011;10973;46.706;12.340;2023-04-15T12:49:35;1.40;;;1.30;;
21621;SDS011;10973;46.706;12.340;2023-04-15T12:52:05;1.23;;;1.17;;
21621;SDS011;10973;46.706;12.340;2023-04-15T12:54:32;3.10;;;1.40;;
21621;SDS011;10973;46.706;12.340;2023-04-15T12:57:00;1.40;;;1.40;;
21621;SDS011;10973;46.706;12.340;2023-04-15T12:59:33;2.67;;;1.30;;
21621;SDS011;10973;46.706;12.340;2023-04-15T13:02:01;1.83;;;1.50;;
21621;SDS011;10973;46.706;12.340;2023-04-15T13:04:29;1.33;;;1.23;;
21621;SDS011;10973;46.706;12.340;2023-04-15T13:06:57;4.60;;;1.43;;
21621;SDS011;10973;46.706;12.340;2023-04-15T13:09:24;1.37;;;1.30;;
21621;SDS011;10973;46.706;12.340;2023-04-15T13:11:52;1.20;;;1.20;;
21621;SDS011;10973;46.706;12.340;2023-04-15T13:14:20;1.10;;;1.10;;
21621;SDS011;10973;46.706;12.340;2023-04-15T13:16:47;1.27;;;1.27;;
21621;SDS011;10973;46.706;12.340;2023-04-15T13:19:14;2.13;;;1.40;;
21621;SDS011;10973;46.706;12.340;2023-04-15T13:21:42;7.03;;;1.73;;
21621;SDS011;10973;46.706;12.340;2023-04-15T13:24:09;1.13;;;1.13;;
21621;SDS011;10973;46.706;12.340;2023-04-15T13:26:36;1.87;;;1.40;;
21621;SDS011;10973;46.706;12.340;2023-04-15T13:29:03;1.23;;;1.20;;
21621;SDS011;10973;46.706;12.340;2023-04-15T13:31:31;1.30;;;1.30;;
21621;SDS011;10973;46.706;12.340;2023-04-15T13:33:59;1.40;;;1.40;;
21621;SDS011;10973;46.706;12.340;2023-04-15T13:36:26;1.17;;;1.17;;
21621;SDS011;10973;46.706;12.340;2023-04-15T13:38:53;1.40;;;1.27;;
21621;SDS011;10973;46.706;12.340;2023-04-15T13:41:21;5.00;;;1.80;;
21621;SDS011;10973;46.706;12.340;2023-04-15T13:43:48;8.20;;;1.20;;
21621;SDS011;10973;46.706;12.340;2023-04-15T13:46:15;1.20;;;1.20;;
21621;SDS011;10973;46.706;12.340;2023-04-15T13:48:43;1.10;;;1.10;;
21621;SDS011;10973;46.706;12.340;2023-04-15T13:51:10;1.87;;;1.30;;
21621;SDS011;10973;46.706;12.340;2023-04-15T13:53:37;1.20;;;1.20;;
21621;SDS011;10973;46.706;12.340;2023-04-15T13:56:08;1.30;;;1.20;;
21621;SDS011;10973;46.706;12.340;2023-04-15T13:58:36;2.60;;;1.20;;
21621;SDS011;10973;46.706;12.340;2023-04-15T14:01:04;1.20;;;1.20;;
21621;SDS011;10973;46.706;12.340;2023-04-15T14:03:33;1.43;;;1.30;;
21621;SDS011;10973;46.706;12.340;2023-04-15T14:06:02;1.13;;;1.10;;
21621;SDS011;10973;46.706;12.340;2023-04-15T14:08:30;1.00;;;1.00;;
21621;SDS011;10973;46.706;12.340;2023-04-15T14:10:58;1.40;;;1.27;;
21621;SDS011;10973;46.706;12.340;2023-04-15T14:13:26;1.27;;;1.10;;
21621;SDS011;10973;46.706;12.340;2023-04-15T14:15:53;1.00;;;1.00;;
21621;SDS011;10973;46.706;12.340;2023-04-15T14:18:22;2.30;;;1.23;;
21621;SDS011;10973;46.706;12.340;2023-04-15T14:20:50;1.20;;;1.20;;
21621;SDS011;10973;46.706;12.340;2023-04-15T14:23:17;0.97;;;0.93;;
21621;SDS011;10973;46.706;12.340;2023-04-15T14:25:45;5.40;;;1.20;;
21621;SDS011;10973;46.706;12.340;2023-04-15T14:28:14;5.90;;;1.53;;
21621;SDS011;10973;46.706;12.340;2023-04-15T14:30:42;2.50;;;1.20;;
21621;SDS011;10973;46.706;12.340;2023-04-15T14:33:09;1.50;;;1.00;;
21621;SDS011;10973;46.706;12.340;2023-04-15T14:35:37;0.97;;;0.97;;
21621;SDS011;10973;46.706;12.340;2023-04-15T14:38:04;0.97;;;0.97;;
21621;SDS011;10973;46.706;12.340;2023-04-15T14:40:32;1.00;;;1.00;;
21621;SDS011;10973;46.706;12.340;2023-04-15T14:42:59;2.30;;;1.07;;
21621;SDS011;10973;46.706;12.340;2023-04-15T14:45:27;1.53;;;0.90;;
21621;SDS011;10973;46.706;12.340;2023-04-15T14:47:55;1.10;;;1.00;;
21621;SDS011;10973;46.706;12.340;2023-04-15T14:50:24;1.03;;;1.03;;
21621;SDS011;10973;46.706;12.340;2023-04-15T14:52:51;1.37;;;1.20;;
21621;SDS011;10973;46.706;12.340;2023-04-15T14:55:19;1.53;;;1.43;;